sensor_id;sensor_type;location;lat;lon;timestamp;P1;durP1;ratioP1;P2;durP2;ratioP2
24521;SDS011;12680;57.804;12.190;2023-05-20T00:00:05;11.45;;;5.88;;
24521;SDS011;12680;57.804;12.190;2023-05-20T00:02:33;10.80;;;5.68;;
24521;SDS011;12680;57.804;12.190;2023-05-20T00:05:01;10.30;;;5.97;;
24521;SDS011;12680;57.804;12.190;2023-05-20T00:07:33;12.73;;;6.18;;
24521;SDS011;12680;57.804;12.190;2023-05-20T00:10:00;13.63;;;6.55;;
24521;SDS011;12680;57.804;12.190;2023-05-20T00:12:27;11.50;;;7.00;;
24521;SDS011;12680;57.804;12.190;2023-05-20T00:14:54;13.45;;;6.68;;
24521;SDS011;12680;57.804;12.190;2023-05-20T00:17:21;11.35;;;6.22;;
24521;SDS011;12680;57.804;12.190;2023-05-20T00:19:48;10.45;;;5.88;;
24521;SDS011;12680;57.804;12.190;2023-05-20T00:22:15;11.88;;;6.25;;
24521;SDS011;12680;57.804;12.190;2023-05-20T00:24:42;10.88;;;5.75;;
24521;SDS011;12680;57.804;12.190;2023-05-20T00:27:12;10.90;;;6.38;;
24521;SDS011;12680;57.804;12.190;2023-05-20T00:29:43;10.23;;;5.95;;
24521;SDS011;12680;57.804;12.190;2023-05-20T00:32:11;9.60;;;5.70;;
24521;SDS011;12680;57.804;12.190;2023-05-20T00:34:42;10.65;;;5.97;;
24521;SDS011;12680;57.804;12.190;2023-05-20T00:37:09;7.53;;;5.38;;
24521;SDS011;12680;57.804;12.190;2023-05-20T00:39:36;12.35;;;6.78;;
24521;SDS011;12680;57.804;12.190;2023-05-20T00:42:06;14.43;;;6.88;;
24521;SDS011;12680;57.804;12.190;2023-05-20T00:44:33;8.80;;;5.85;;
24521;SDS011;12680;57.804;12.190;2023-05-20T00:47:00;15.45;;;6.47;;
24521;SDS011;12680;57.804;12.190;2023-05-20T00:49:31;12.18;;;7.22;;
24521;SDS011;12680;57.804;12.190;2023-05-20T00:51:57;12.57;;;6.75;;
24521;SDS011;12680;57.804;12.190;2023-05-20T00:54:25;14.52;;;6.85;;
24521;SDS011;12680;57.804;12.190;2023-05-20T00:56:52;10.23;;;5.97;;
24521;SDS011;12680;57.804;12.190;2023-05-20T00:59:19;14.82;;;6.53;;
24521;SDS011;12680;57.804;12.190;2023-05-20T01:01:46;9.63;;;6.20;;
24521;SDS011;12680;57.804;12.190;2023-05-20T01:04:14;11.00;;;6.15;;
24521;SDS011;12680;57.804;12.190;2023-05-20T01:06:48;11.18;;;6.55;;
24521;SDS011;12680;57.804;12.190;2023-05-20T01:09:15;10.73;;;5.93;;
24521;SDS011;12680;57.804;12.190;2023-05-20T01:11:43;11.70;;;6.32;;
24521;SDS011;12680;57.804;12.190;2023-05-20T01:14:16;27.67;;;7.20;;
24521;SDS011;12680;57.804;12.190;2023-05-20T01:16:44;8.82;;;5.55;;
24521;SDS011;12680;57.804;12.190;2023-05-20T01:19:21;10.07;;;6.70;;
24521;SDS011;12680;57.804;12.190;2023-05-20T01:22:07;11.45;;;6.00;;
24521;SDS011;12680;57.804;12.190;2023-05-20T01:24:41;12.10;;;6.43;;
24521;SDS011;12680;57.804;12.190;2023-05-20T01:27:10;12.55;;;6.22;;
24521;SDS011;12680;57.804;12.190;2023-05-20T01:29:39;12.55;;;6.15;;
24521;SDS011;12680;57.804;12.190;2023-05-20T01:32:10;11.77;;;6.85;;
24521;SDS011;12680;57.804;12.190;2023-05-20T01:34:40;12.77;;;6.88;;
24521;SDS011;12680;57.804;12.190;2023-05-20T01:37:08;10.25;;;6.15;;
24521;SDS011;12680;57.804;12.190;2023-05-20T01:39:36;13.10;;;7.15;;
24521;SDS011;12680;57.804;12.190;2023-05-20T01:42:07;9.50;;;5.82;;
24521;SDS011;12680;57.804;12.190;2023-05-20T01:44:35;10.10;;;5.45;;
24521;SDS011;12680;57.804;12.190;2023-05-20T01:47:03;10.82;;;6.65;;
24521;SDS011;12680;57.804;12.190;2023-05-20T01:49:30;12.25;;;6.40;;
24521;SDS011;12680;57.804;12.190;2023-05-20T01:51:57;13.32;;;7.05;;
24521;SDS011;12680;57.804;12.190;2023-05-20T01:54:24;11.55;;;6.38;;
24521;SDS011;12680;57.804;12.190;2023-05-20T01:56:51;12.35;;;6.75;;
24521;SDS011;12680;57.804;12.190;2023-05-20T01:59:18;14.73;;;6.65;;
24521;SDS011;12680;57.804;12.190;2023-05-20T02:01:45;11.75;;;6.53;;
24521;SDS011;12680;57.804;12.190;2023-05-20T02:04:13;13.90;;;6.75;;
24521;SDS011;12680;57.804;12.190;2023-05-20T02:06:39;15.20;;;7.25;;
24521;SDS011;12680;57.804;12.190;2023-05-20T02:09:06;13.05;;;6.43;;
24521;SDS011;12680;57.804;12.190;2023-05-20T02:11:33;11.82;;;7.13;;
24521;SDS011;12680;57.804;12.190;2023-05-20T02:14:01;11.93;;;6.45;;
24521;SDS011;12680;57.804;12.190;2023-05-20T02:16:28;9.95;;;5.80;;
24521;SDS011;12680;57.804;12.190;2023-05-20T02:18:55;10.18;;;6.43;;
24521;SDS011;12680;57.804;12.190;2023-05-20T02:21:24;12.65;;;6.80;;
24521;SDS011;12680;57.804;12.190;2023-05-20T02:23:51;10.63;;;6.30;;
24521;SDS011;12680;57.804;12.190;2023-05-20T02:26:18;11.18;;;6.28;;
24521;SDS011;12680;57.804;12.190;2023-05-20T02:28:46;11.70;;;6.00;;
24521;SDS011;12680;57.804;12.190;2023-05-20T02:31:16;9.90;;;6.55;;
24521;SDS011;12680;57.804;12.190;2023-05-20T02:33:43;12.10;;;6.50;;
24521;SDS011;12680;57.804;12.190;2023-05-20T02:36:11;10.13;;;6.10;;
24521;SDS011;12680;57.804;12.190;2023-05-20T02:38:38;11.18;;;6.18;;
24521;SDS011;12680;57.804;12.190;2023-05-20T02:41:05;8.73;;;5.78;;
24521;SDS011;12680;57.804;12.190;2023-05-20T02:43:32;10.27;;;6.15;;
24521;SDS011;12680;57.804;12.190;2023-05-20T02:45:59;11.05;;;6.38;;
24521;SDS011;12680;57.804;12.190;2023-05-20T02:48:26;9.50;;;5.55;;
24521;SDS011;12680;57.804;12.190;2023-05-20T02:50:53;8.77;;;5.88;;
24521;SDS011;12680;57.804;12.190;2023-05-20T02:53:21;10.05;;;6.13;;
24521;SDS011;12680;57.804;12.190;2023-05-20T02:55:48;8.77;;;6.20;;
24521;SDS011;12680;57.804;12.190;2023-05-20T02:58:15;10.38;;;6.55;;
24521;SDS011;12680;57.804;12.190;2023-05-20T03:00:42;10.75;;;6.57;;
24521;SDS011;12680;57.804;12.190;2023-05-20T03:03:09;10.95;;;5.88;;
24521;SDS011;12680;57.804;12.190;2023-05-20T03:05:37;13.93;;;6.57;;
24521;SDS011;12680;57.804;12.190;2023-05-20T03:08:07;13.35;;;6.95;;
24521;SDS011;12680;57.804;12.190;2023-05-20T03:10:36;12.30;;;6.72;;
24521;SDS011;12680;57.804;12.190;2023-05-20T03:13:04;11.90;;;7.07;;
24521;SDS011;12680;57.804;12.190;2023-05-20T03:15:40;12.02;;;6.45;;
24521;SDS011;12680;57.804;12.190;2023-05-20T03:18:08;11.82;;;5.97;;
24521;SDS011;12680;57.804;12.190;2023-05-20T03:20:35;10.15;;;6.45;;
24521;SDS011;12680;57.804;12.190;2023-05-20T03:23:03;16.15;;;5.97;;
24521;SDS011;12680;57.804;12.190;2023-05-20T03:25:31;11.57;;;6.65;;
24521;SDS011;12680;57.804;12.190;2023-05-20T03:27:58;11.93;;;6.28;;
24521;SDS011;12680;57.804;12.190;2023-05-20T03:30:26;13.70;;;6.40;;
24521;SDS011;12680;57.804;12.190;2023-05-20T03:32:54;10.70;;;6.78;;
24521;SDS011;12680;57.804;12.190;2023-05-20T03:35:23;10.98;;;6.35;;
24521;SDS011;12680;57.804;12.190;2023-05-20T03:37:51;13.18;;;6.82;;
24521;SDS011;12680;57.804;12.190;2023-05-20T03:40:18;14.50;;;6.70;;
24521;SDS011;12680;57.804;12.190;2023-05-20T03:42:46;10.82;;;6.80;;
24521;SDS011;12680;57.804;12.190;2023-05-20T03:45:13;10.73;;;5.63;;
24521;SDS011;12680;57.804;12.190;2023-05-20T03:47:40;9.98;;;6.13;;
24521;SDS011;12680;57.804;12.190;2023-05-20T03:50:07;13.32;;;6.72;;
24521;SDS011;12680;57.804;12.190;2023-05-20T03:52:35;12.30;;;6.38;;
24521;SDS011;12680;57.804;12.190;2023-05-20T03:55:02;9.27;;;6.50;;
24521;SDS011;12680;57.804;12.190;2023-05-20T03:57:29;12.93;;;6.65;;
24521;SDS011;12680;57.804;12.190;2023-05-20T03:59:57;13.52;;;7.32;;
24521;SDS011;12680;57.804;12.190;2023-05-20T04:02:24;11.88;;;7.28;;
24521;SDS011;12680;57.804;12.190;2023-05-20T04:04:51;12.30;;;6.95;;
24521;SDS011;12680;57.804;12.190;2023-05-20T04:07:18;13.20;;;6.65;;
24521;SDS011;12680;57.804;12.190;2023-05-20T04:09:45;12.82;;;7.97;;
24521;SDS011;12680;57.804;12.190;2023-05-20T04:12:12;11.15;;;6.82;;
24521;SDS011;12680;57.804;12.190;2023-05-20T04:14:39;14.10;;;7.30;;
24521;SDS011;12680;57.804;12.190;2023-05-20T04:17:07;16.80;;;7.40;;
24521;SDS011;12680;57.804;12.190;2023-05-20T04:19:35;10.65;;;7.28;;
24521;SDS011;12680;57.804;12.190;2023-05-20T04:22:03;10.10;;;6.35;;
24521;SDS011;12680;57.804;12.190;2023-05-20T04:24:30;10.20;;;6.70;;
24521;SDS011;12680;57.804;12.190;2023-05-20T04:26:57;13.40;;;6.85;;
24521;SDS011;12680;57.804;12.190;2023-05-20T04:29:24;12.23;;;6.75;;
24521;SDS011;12680;57.804;12.190;2023-05-20T04:31:51;11.05;;;6.90;;
24521;SDS011;12680;57.804;12.190;2023-05-20T04:34:19;15.52;;;7.20;;
24521;SDS011;12680;57.804;12.190;2023-05-20T04:36:52;13.27;;;7.25;;
24521;SDS011;12680;57.804;12.190;2023-05-20T04:39:19;9.98;;;6.63;;
24521;SDS011;12680;57.804;12.190;2023-05-20T04:41:46;13.48;;;7.10;;
24521;SDS011;12680;57.804;12.190;2023-05-20T04:44:13;11.90;;;6.75;;
24521;SDS011;12680;57.804;12.190;2023-05-20T04:46:40;9.95;;;6.88;;
24521;SDS011;12680;57.804;12.190;2023-05-20T04:49:07;12.20;;;6.25;;
24521;SDS011;12680;57.804;12.190;2023-05-20T04:51:34;13.40;;;6.82;;
24521;SDS011;12680;57.804;12.190;2023-05-20T04:54:01;11.23;;;6.07;;
24521;SDS011;12680;57.804;12.190;2023-05-20T04:56:28;14.10;;;7.20;;
24521;SDS011;12680;57.804;12.190;2023-05-20T04:58:55;14.60;;;6.90;;
24521;SDS011;12680;57.804;12.190;2023-05-20T05:01:23;12.38;;;6.00;;
24521;SDS011;12680;57.804;12.190;2023-05-20T05:03:50;11.07;;;6.47;;
24521;SDS011;12680;57.804;12.190;2023-05-20T05:06:18;11.73;;;6.50;;
24521;SDS011;12680;57.804;12.190;2023-05-20T05:08:44;13.02;;;7.45;;
24521;SDS011;12680;57.804;12.190;2023-05-20T05:11:11;7.57;;;5.70;;
24521;SDS011;12680;57.804;12.190;2023-05-20T05:13:38;12.15;;;7.00;;
24521;SDS011;12680;57.804;12.190;2023-05-20T05:16:05;9.15;;;6.75;;
24521;SDS011;12680;57.804;12.190;2023-05-20T05:18:33;9.57;;;6.50;;
24521;SDS011;12680;57.804;12.190;2023-05-20T05:21:04;11.23;;;6.97;;
24521;SDS011;12680;57.804;12.190;2023-05-20T05:23:31;11.60;;;6.70;;
24521;SDS011;12680;57.804;12.190;2023-05-20T05:25:59;12.07;;;6.78;;
24521;SDS011;12680;57.804;12.190;2023-05-20T05:28:26;12.40;;;6.40;;
24521;SDS011;12680;57.804;12.190;2023-05-20T05:30:53;10.20;;;5.43;;
24521;SDS011;12680;57.804;12.190;2023-05-20T05:33:21;12.02;;;6.60;;
24521;SDS011;12680;57.804;12.190;2023-05-20T05:35:48;12.43;;;6.43;;
24521;SDS011;12680;57.804;12.190;2023-05-20T05:38:16;10.93;;;6.28;;
24521;SDS011;12680;57.804;12.190;2023-05-20T05:40:43;10.65;;;6.80;;
24521;SDS011;12680;57.804;12.190;2023-05-20T05:43:10;10.68;;;5.90;;
24521;SDS011;12680;57.804;12.190;2023-05-20T05:45:37;11.50;;;6.18;;
24521;SDS011;12680;57.804;12.190;2023-05-20T05:48:04;12.02;;;6.55;;
24521;SDS011;12680;57.804;12.190;2023-05-20T05:50:31;9.10;;;6.32;;
24521;SDS011;12680;57.804;12.190;2023-05-20T05:52:59;11.38;;;7.03;;
24521;SDS011;12680;57.804;12.190;2023-05-20T05:55:26;11.45;;;6.28;;
24521;SDS011;12680;57.804;12.190;2023-05-20T05:57:53;11.60;;;6.72;;
24521;SDS011;12680;57.804;12.190;2023-05-20T06:00:20;12.10;;;6.45;;
24521;SDS011;12680;57.804;12.190;2023-05-20T06:02:48;13.13;;;6.82;;
24521;SDS011;12680;57.804;12.190;2023-05-20T06:05:15;11.30;;;5.97;;
24521;SDS011;12680;57.804;12.190;2023-05-20T06:07:42;10.38;;;6.10;;
24521;SDS011;12680;57.804;12.190;2023-05-20T06:10:10;7.88;;;5.72;;
24521;SDS011;12680;57.804;12.190;2023-05-20T06:12:37;9.60;;;6.18;;
24521;SDS011;12680;57.804;12.190;2023-05-20T06:15:04;9.13;;;6.10;;
24521;SDS011;12680;57.804;12.190;2023-05-20T06:17:33;11.68;;;6.80;;
24521;SDS011;12680;57.804;12.190;2023-05-20T06:20:00;11.13;;;6.47;;
24521;SDS011;12680;57.804;12.190;2023-05-20T06:22:27;10.05;;;5.82;;
24521;SDS011;12680;57.804;12.190;2023-05-20T06:24:57;13.98;;;6.65;;
24521;SDS011;12680;57.804;12.190;2023-05-20T06:27:30;9.68;;;5.78;;
24521;SDS011;12680;57.804;12.190;2023-05-20T06:29:57;13.43;;;6.40;;
24521;SDS011;12680;57.804;12.190;2023-05-20T06:32:24;10.15;;;5.63;;
24521;SDS011;12680;57.804;12.190;2023-05-20T06:34:53;9.15;;;5.45;;
24521;SDS011;12680;57.804;12.190;2023-05-20T06:37:20;10.43;;;5.47;;
24521;SDS011;12680;57.804;12.190;2023-05-20T06:39:50;9.40;;;5.47;;
24521;SDS011;12680;57.804;12.190;2023-05-20T06:42:19;9.85;;;5.47;;
24521;SDS011;12680;57.804;12.190;2023-05-20T06:44:47;8.63;;;5.35;;
24521;SDS011;12680;57.804;12.190;2023-05-20T06:47:15;8.40;;;5.20;;
24521;SDS011;12680;57.804;12.190;2023-05-20T06:49:50;8.48;;;4.78;;
24521;SDS011;12680;57.804;12.190;2023-05-20T06:52:24;8.98;;;5.43;;
24521;SDS011;12680;57.804;12.190;2023-05-20T06:54:56;9.05;;;5.05;;
24521;SDS011;12680;57.804;12.190;2023-05-20T06:57:34;10.88;;;4.72;;
24521;SDS011;12680;57.804;12.190;2023-05-20T07:00:03;7.88;;;4.70;;
24521;SDS011;12680;57.804;12.190;2023-05-20T07:02:34;7.82;;;4.35;;
24521;SDS011;12680;57.804;12.190;2023-05-20T07:05:01;7.97;;;4.60;;
24521;SDS011;12680;57.804;12.190;2023-05-20T07:07:34;8.00;;;3.88;;
24521;SDS011;12680;57.804;12.190;2023-05-20T07:10:09;8.63;;;4.18;;
24521;SDS011;12680;57.804;12.190;2023-05-20T07:12:41;8.60;;;4.32;;
24521;SDS011;12680;57.804;12.190;2023-05-20T07:15:09;8.23;;;4.32;;
24521;SDS011;12680;57.804;12.190;2023-05-20T07:17:36;5.50;;;3.67;;
24521;SDS011;12680;57.804;12.190;2023-05-20T07:20:23;7.05;;;3.92;;
24521;SDS011;12680;57.804;12.190;2023-05-20T07:22:54;6.60;;;4.00;;
24521;SDS011;12680;57.804;12.190;2023-05-20T07:25:26;5.20;;;3.85;;
24521;SDS011;12680;57.804;12.190;2023-05-20T07:28:01;5.30;;;3.95;;
24521;SDS011;12680;57.804;12.190;2023-05-20T07:30:32;7.07;;;3.72;;
24521;SDS011;12680;57.804;12.190;2023-05-20T07:33:02;5.20;;;3.40;;
24521;SDS011;12680;57.804;12.190;2023-05-20T07:35:33;6.35;;;4.05;;
24521;SDS011;12680;57.804;12.190;2023-05-20T07:38:04;7.57;;;3.45;;
24521;SDS011;12680;57.804;12.190;2023-05-20T07:40:31;5.90;;;3.92;;
24521;SDS011;12680;57.804;12.190;2023-05-20T07:43:06;6.25;;;3.67;;
24521;SDS011;12680;57.804;12.190;2023-05-20T07:45:38;6.93;;;3.70;;
24521;SDS011;12680;57.804;12.190;2023-05-20T07:48:07;7.50;;;4.22;;
24521;SDS011;12680;57.804;12.190;2023-05-20T07:50:36;5.38;;;3.42;;
24521;SDS011;12680;57.804;12.190;2023-05-20T07:53:05;9.80;;;3.85;;
24521;SDS011;12680;57.804;12.190;2023-05-20T07:55:33;8.07;;;3.80;;
24521;SDS011;12680;57.804;12.190;2023-05-20T07:58:04;5.47;;;3.35;;
24521;SDS011;12680;57.804;12.190;2023-05-20T08:00:31;5.00;;;3.63;;
24521;SDS011;12680;57.804;12.190;2023-05-20T08:03:02;3.45;;;2.83;;
24521;SDS011;12680;57.804;12.190;2023-05-20T08:05:30;6.97;;;3.47;;
24521;SDS011;12680;57.804;12.190;2023-05-20T08:07:57;3.70;;;2.65;;
24521;SDS011;12680;57.804;12.190;2023-05-20T08:10:24;4.75;;;3.00;;
24521;SDS011;12680;57.804;12.190;2023-05-20T08:12:55;6.15;;;3.05;;
24521;SDS011;12680;57.804;12.190;2023-05-20T08:17:59;5.00;;;3.00;;
24521;SDS011;12680;57.804;12.190;2023-05-20T08:20:29;4.28;;;2.95;;
24521;SDS011;12680;57.804;12.190;2023-05-20T08:23:05;4.00;;;2.80;;
24521;SDS011;12680;57.804;12.190;2023-05-20T08:25:35;7.28;;;2.95;;
24521;SDS011;12680;57.804;12.190;2023-05-20T08:28:07;5.32;;;2.83;;
24521;SDS011;12680;57.804;12.190;2023-05-20T08:30:38;4.85;;;2.85;;
24521;SDS011;12680;57.804;12.190;2023-05-20T08:33:14;4.88;;;2.90;;
24521;SDS011;12680;57.804;12.190;2023-05-20T08:35:44;5.18;;;2.65;;
24521;SDS011;12680;57.804;12.190;2023-05-20T08:38:17;3.60;;;2.30;;
24521;SDS011;12680;57.804;12.190;2023-05-20T08:40:50;6.30;;;2.70;;
24521;SDS011;12680;57.804;12.190;2023-05-20T08:43:22;4.95;;;2.35;;
24521;SDS011;12680;57.804;12.190;2023-05-20T08:45:50;7.22;;;2.30;;
24521;SDS011;12680;57.804;12.190;2023-05-20T08:48:18;4.95;;;2.35;;
24521;SDS011;12680;57.804;12.190;2023-05-20T08:50:50;6.57;;;2.60;;
24521;SDS011;12680;57.804;12.190;2023-05-20T08:53:22;4.13;;;2.28;;
24521;SDS011;12680;57.804;12.190;2023-05-20T08:55:54;7.57;;;2.45;;
24521;SDS011;12680;57.804;12.190;2023-05-20T08:58:26;3.83;;;1.92;;
24521;SDS011;12680;57.804;12.190;2023-05-20T09:00:58;4.47;;;2.17;;
24521;SDS011;12680;57.804;12.190;2023-05-20T09:03:25;3.90;;;2.38;;
24521;SDS011;12680;57.804;12.190;2023-05-20T09:05:53;5.00;;;2.50;;
24521;SDS011;12680;57.804;12.190;2023-05-20T09:08:32;5.22;;;2.60;;
24521;SDS011;12680;57.804;12.190;2023-05-20T09:11:00;4.97;;;2.13;;
24521;SDS011;12680;57.804;12.190;2023-05-20T09:13:29;4.93;;;2.20;;
24521;SDS011;12680;57.804;12.190;2023-05-20T09:15:58;4.43;;;2.20;;
24521;SDS011;12680;57.804;12.190;2023-05-20T09:18:26;4.70;;;2.45;;
24521;SDS011;12680;57.804;12.190;2023-05-20T09:20:54;3.03;;;2.13;;
24521;SDS011;12680;57.804;12.190;2023-05-20T09:23:22;6.00;;;2.80;;
24521;SDS011;12680;57.804;12.190;2023-05-20T09:25:53;6.78;;;2.70;;
24521;SDS011;12680;57.804;12.190;2023-05-20T09:28:21;3.22;;;2.58;;
24521;SDS011;12680;57.804;12.190;2023-05-20T09:30:55;4.90;;;2.80;;
24521;SDS011;12680;57.804;12.190;2023-05-20T09:33:28;4.97;;;2.72;;
24521;SDS011;12680;57.804;12.190;2023-05-20T09:36:01;6.43;;;2.80;;
24521;SDS011;12680;57.804;12.190;2023-05-20T09:38:31;3.15;;;2.30;;
24521;SDS011;12680;57.804;12.190;2023-05-20T09:41:06;3.95;;;2.05;;
24521;SDS011;12680;57.804;12.190;2023-05-20T09:43:35;3.25;;;2.10;;
24521;SDS011;12680;57.804;12.190;2023-05-20T09:46:03;4.97;;;2.60;;
24521;SDS011;12680;57.804;12.190;2023-05-20T09:48:31;3.22;;;2.40;;
24521;SDS011;12680;57.804;12.190;2023-05-20T09:51:02;4.03;;;2.57;;
24521;SDS011;12680;57.804;12.190;2023-05-20T09:53:30;6.97;;;2.63;;
24521;SDS011;12680;57.804;12.190;2023-05-20T09:55:58;2.95;;;2.00;;
24521;SDS011;12680;57.804;12.190;2023-05-20T09:58:25;4.70;;;2.42;;
24521;SDS011;12680;57.804;12.190;2023-05-20T10:00:52;7.78;;;2.72;;
24521;SDS011;12680;57.804;12.190;2023-05-20T10:03:22;4.47;;;2.50;;
24521;SDS011;12680;57.804;12.190;2023-05-20T10:08:53;5.68;;;2.30;;
24521;SDS011;12680;57.804;12.190;2023-05-20T10:16:58;5.93;;;2.00;;
24521;SDS011;12680;57.804;12.190;2023-05-20T10:19:49;3.33;;;2.30;;
24521;SDS011;12680;57.804;12.190;2023-05-20T10:22:25;5.10;;;2.38;;
24521;SDS011;12680;57.804;12.190;2023-05-20T10:24:59;3.22;;;2.08;;
24521;SDS011;12680;57.804;12.190;2023-05-20T10:27:41;6.72;;;2.03;;
24521;SDS011;12680;57.804;12.190;2023-05-20T10:30:19;3.90;;;1.85;;
24521;SDS011;12680;57.804;12.190;2023-05-20T10:32:51;5.38;;;2.30;;
24521;SDS011;12680;57.804;12.190;2023-05-20T10:35:23;2.45;;;1.67;;
24521;SDS011;12680;57.804;12.190;2023-05-20T10:37:54;6.45;;;2.13;;
24521;SDS011;12680;57.804;12.190;2023-05-20T10:40:36;2.90;;;2.13;;
24521;SDS011;12680;57.804;12.190;2023-05-20T10:43:10;3.45;;;2.17;;
24521;SDS011;12680;57.804;12.190;2023-05-20T10:45:48;3.47;;;2.15;;
24521;SDS011;12680;57.804;12.190;2023-05-20T10:48:29;3.90;;;2.35;;
24521;SDS011;12680;57.804;12.190;2023-05-20T10:50:59;3.35;;;2.17;;
24521;SDS011;12680;57.804;12.190;2023-05-20T10:53:37;3.70;;;2.10;;
24521;SDS011;12680;57.804;12.190;2023-05-20T10:56:15;2.90;;;1.90;;
24521;SDS011;12680;57.804;12.190;2023-05-20T10:58:44;3.20;;;2.00;;
24521;SDS011;12680;57.804;12.190;2023-05-20T11:01:11;3.33;;;2.03;;
24521;SDS011;12680;57.804;12.190;2023-05-20T11:03:39;2.85;;;1.90;;
24521;SDS011;12680;57.804;12.190;2023-05-20T11:06:11;5.28;;;2.22;;
24521;SDS011;12680;57.804;12.190;2023-05-20T11:08:40;4.05;;;2.00;;
24521;SDS011;12680;57.804;12.190;2023-05-20T11:11:07;3.85;;;2.00;;
24521;SDS011;12680;57.804;12.190;2023-05-20T11:13:35;2.28;;;1.60;;
24521;SDS011;12680;57.804;12.190;2023-05-20T11:16:02;4.03;;;1.67;;
24521;SDS011;12680;57.804;12.190;2023-05-20T11:18:30;3.72;;;2.08;;
24521;SDS011;12680;57.804;12.190;2023-05-20T11:20:57;3.45;;;2.00;;
24521;SDS011;12680;57.804;12.190;2023-05-20T11:23:26;3.15;;;2.00;;
24521;SDS011;12680;57.804;12.190;2023-05-20T11:25:55;3.22;;;1.60;;
24521;SDS011;12680;57.804;12.190;2023-05-20T11:28:23;4.30;;;2.10;;
24521;SDS011;12680;57.804;12.190;2023-05-20T11:30:51;2.78;;;1.70;;
24521;SDS011;12680;57.804;12.190;2023-05-20T11:33:18;3.75;;;2.08;;
24521;SDS011;12680;57.804;12.190;2023-05-20T11:35:46;5.88;;;1.70;;
24521;SDS011;12680;57.804;12.190;2023-05-20T11:38:14;7.25;;;2.30;;
24521;SDS011;12680;57.804;12.190;2023-05-20T11:40:45;5.35;;;1.77;;
24521;SDS011;12680;57.804;12.190;2023-05-20T11:43:17;3.20;;;1.90;;
24521;SDS011;12680;57.804;12.190;2023-05-20T11:45:46;2.63;;;1.45;;
24521;SDS011;12680;57.804;12.190;2023-05-20T11:48:17;3.97;;;1.63;;
24521;SDS011;12680;57.804;12.190;2023-05-20T11:50:48;3.20;;;1.52;;
24521;SDS011;12680;57.804;12.190;2023-05-20T11:53:15;2.97;;;1.63;;
24521;SDS011;12680;57.804;12.190;2023-05-20T11:55:56;6.20;;;1.50;;
24521;SDS011;12680;57.804;12.190;2023-05-20T11:58:30;4.63;;;1.55;;
24521;SDS011;12680;57.804;12.190;2023-05-20T12:00:57;1.83;;;1.50;;
24521;SDS011;12680;57.804;12.190;2023-05-20T12:03:39;2.85;;;1.90;;
24521;SDS011;12680;57.804;12.190;2023-05-20T12:06:06;5.68;;;3.05;;
24521;SDS011;12680;57.804;12.190;2023-05-20T12:08:36;7.32;;;3.60;;
24521;SDS011;12680;57.804;12.190;2023-05-20T12:11:03;6.60;;;3.72;;
24521;SDS011;12680;57.804;12.190;2023-05-20T12:13:33;4.10;;;3.50;;
24521;SDS011;12680;57.804;12.190;2023-05-20T12:16:00;5.10;;;3.35;;
24521;SDS011;12680;57.804;12.190;2023-05-20T12:18:31;5.77;;;3.70;;
24521;SDS011;12680;57.804;12.190;2023-05-20T12:21:00;5.03;;;3.35;;
24521;SDS011;12680;57.804;12.190;2023-05-20T12:23:27;6.03;;;3.25;;
24521;SDS011;12680;57.804;12.190;2023-05-20T12:25:56;7.05;;;3.45;;
24521;SDS011;12680;57.804;12.190;2023-05-20T12:28:22;6.55;;;3.90;;
24521;SDS011;12680;57.804;12.190;2023-05-20T12:30:49;5.30;;;3.38;;
24521;SDS011;12680;57.804;12.190;2023-05-20T12:33:16;4.22;;;3.33;;
24521;SDS011;12680;57.804;12.190;2023-05-20T12:35:46;7.68;;;3.70;;
24521;SDS011;12680;57.804;12.190;2023-05-20T12:38:13;5.15;;;3.70;;
24521;SDS011;12680;57.804;12.190;2023-05-20T12:40:40;9.27;;;3.65;;
24521;SDS011;12680;57.804;12.190;2023-05-20T12:43:07;9.93;;;3.58;;
24521;SDS011;12680;57.804;12.190;2023-05-20T12:45:34;5.57;;;3.40;;
24521;SDS011;12680;57.804;12.190;2023-05-20T12:48:01;6.68;;;3.83;;
24521;SDS011;12680;57.804;12.190;2023-05-20T12:50:28;9.38;;;4.03;;
24521;SDS011;12680;57.804;12.190;2023-05-20T12:52:55;12.38;;;4.00;;
24521;SDS011;12680;57.804;12.190;2023-05-20T12:55:22;6.78;;;3.47;;
24521;SDS011;12680;57.804;12.190;2023-05-20T12:57:49;5.40;;;3.53;;
24521;SDS011;12680;57.804;12.190;2023-05-20T13:00:17;4.63;;;3.45;;
24521;SDS011;12680;57.804;12.190;2023-05-20T13:02:44;8.20;;;3.63;;
24521;SDS011;12680;57.804;12.190;2023-05-20T13:05:11;4.53;;;3.53;;
24521;SDS011;12680;57.804;12.190;2023-05-20T13:07:39;5.07;;;3.65;;
24521;SDS011;12680;57.804;12.190;2023-05-20T13:10:06;12.15;;;3.72;;
24521;SDS011;12680;57.804;12.190;2023-05-20T13:12:33;4.45;;;3.30;;
24521;SDS011;12680;57.804;12.190;2023-05-20T13:15:00;7.93;;;3.50;;
24521;SDS011;12680;57.804;12.190;2023-05-20T13:17:27;6.60;;;4.10;;
24521;SDS011;12680;57.804;12.190;2023-05-20T13:19:54;5.75;;;3.60;;
24521;SDS011;12680;57.804;12.190;2023-05-20T13:22:21;4.90;;;3.08;;
24521;SDS011;12680;57.804;12.190;2023-05-20T13:24:48;6.50;;;3.67;;
24521;SDS011;12680;57.804;12.190;2023-05-20T13:27:15;10.68;;;3.85;;
24521;SDS011;12680;57.804;12.190;2023-05-20T13:29:42;8.93;;;3.33;;
24521;SDS011;12680;57.804;12.190;2023-05-20T13:32:09;5.45;;;3.45;;
24521;SDS011;12680;57.804;12.190;2023-05-20T13:34:36;6.43;;;3.53;;
24521;SDS011;12680;57.804;12.190;2023-05-20T13:37:04;6.85;;;3.47;;
24521;SDS011;12680;57.804;12.190;2023-05-20T13:39:31;6.80;;;3.70;;
24521;SDS011;12680;57.804;12.190;2023-05-20T13:41:59;6.45;;;3.65;;
24521;SDS011;12680;57.804;12.190;2023-05-20T13:44:26;6.65;;;3.80;;
24521;SDS011;12680;57.804;12.190;2023-05-20T13:46:53;5.22;;;3.00;;
24521;SDS011;12680;57.804;12.190;2023-05-20T13:49:20;4.93;;;3.08;;
24521;SDS011;12680;57.804;12.190;2023-05-20T13:51:47;6.15;;;3.00;;
24521;SDS011;12680;57.804;12.190;2023-05-20T13:54:14;6.40;;;3.40;;
24521;SDS011;12680;57.804;12.190;2023-05-20T13:56:41;4.60;;;3.00;;
24521;SDS011;12680;57.804;12.190;2023-05-20T13:59:08;5.82;;;3.10;;
24521;SDS011;12680;57.804;12.190;2023-05-20T14:01:35;4.78;;;2.83;;
24521;SDS011;12680;57.804;12.190;2023-05-20T14:04:05;4.82;;;2.92;;
24521;SDS011;12680;57.804;12.190;2023-05-20T14:06:32;6.13;;;3.50;;
24521;SDS011;12680;57.804;12.190;2023-05-20T14:09:01;5.35;;;3.35;;
24521;SDS011;12680;57.804;12.190;2023-05-20T14:11:28;5.25;;;3.22;;
24521;SDS011;12680;57.804;12.190;2023-05-20T14:13:55;6.07;;;2.80;;
24521;SDS011;12680;57.804;12.190;2023-05-20T14:16:22;5.22;;;2.92;;
24521;SDS011;12680;57.804;12.190;2023-05-20T14:18:49;9.35;;;3.28;;
24521;SDS011;12680;57.804;12.190;2023-05-20T14:21:16;5.00;;;2.90;;
24521;SDS011;12680;57.804;12.190;2023-05-20T14:23:42;7.18;;;3.42;;
24521;SDS011;12680;57.804;12.190;2023-05-20T14:26:10;5.35;;;2.80;;
24521;SDS011;12680;57.804;12.190;2023-05-20T14:28:38;5.68;;;3.00;;
24521;SDS011;12680;57.804;12.190;2023-05-20T14:31:05;3.95;;;2.88;;
24521;SDS011;12680;57.804;12.190;2023-05-20T14:33:35;6.40;;;3.10;;
24521;SDS011;12680;57.804;12.190;2023-05-20T14:36:03;5.45;;;3.08;;
24521;SDS011;12680;57.804;12.190;2023-05-20T14:38:30;4.90;;;2.83;;
24521;SDS011;12680;57.804;12.190;2023-05-20T14:40:57;4.20;;;2.83;;
24521;SDS011;12680;57.804;12.190;2023-05-20T14:43:24;3.95;;;2.80;;
24521;SDS011;12680;57.804;12.190;2023-05-20T14:45:51;5.57;;;2.78;;
24521;SDS011;12680;57.804;12.190;2023-05-20T14:48:18;5.55;;;3.20;;